Time;durP1;ratioP1;P1;durP2;ratioP2;P2;SDS_P1;SDS_P2;PMS_P1;PMS_P2;Temp;Humidity;BMP_temperature;BMP_pressure;BME280_temperature;BME280_humidity;BME280_pressure;Samples;Min_cycle;Max_cycle;Signal;HPM_P1;HPM_P2
2022/08/20 00:02:05;;;;;;;6.55;5.82;;;20.90;99.90;;;;;;5077339;28;20056;-57
2022/08/20 00:04:31;;;;;;;5.28;4.78;;;20.80;99.90;;;;;;5074185;28;20055;-57
2022/08/20 00:06:58;;;;;;;5.82;5.07;;;20.80;99.90;;;;;;5075445;28;20032;-58
2022/08/20 00:09:24;;;;;;;5.88;4.28;;;20.80;99.90;;;;;;5074111;28;20048;-57
2022/08/20 00:11:49;;;;;;;6.00;4.50;;;20.90;99.90;;;;;;5079470;28;20525;-57
2022/08/20 00:14:15;;;;;;;6.93;4.78;;;20.90;99.90;;;;;;5074057;28;20116;-57
2022/08/20 00:16:41;;;;;;;5.55;4.35;;;20.90;99.90;;;;;;5075713;28;20024;-57
2022/08/20 00:19:07;;;;;;;5.22;4.72;;;20.90;99.90;;;;;;5076832;28;20390;-57
2022/08/20 00:21:35;;;;;;;5.72;5.05;;;21.00;99.90;;;;;;5079007;28;20036;-57
2022/08/20 00:24:01;;;;;;;4.85;4.10;;;21.00;99.90;;;;;;5076875;28;20024;-58
2022/08/20 00:26:27;;;;;;;5.15;4.60;;;20.90;99.90;;;;;;5082381;28;20405;-58
2022/08/20 00:28:53;;;;;;;5.10;4.28;;;20.90;99.90;;;;;;5076199;28;20021;-57
2022/08/20 00:31:21;;;;;;;5.97;4.72;;;21.00;99.90;;;;;;5082308;28;20024;-57
2022/08/20 00:33:48;;;;;;;4.80;4.30;;;21.00;99.90;;;;;;5083098;28;20362;-57
2022/08/20 00:36:16;;;;;;;5.20;4.70;;;21.00;99.90;;;;;;5080691;28;20024;-57
2022/08/20 00:38:43;;;;;;;5.85;5.10;;;21.00;99.90;;;;;;5076050;28;20028;-57
2022/08/20 00:41:12;;;;;;;6.47;4.68;;;21.00;99.90;;;;;;5084651;28;20520;-57
2022/08/20 00:43:47;;;;;;;6.78;4.75;;;21.00;99.90;;;;;;5082915;28;20386;-57
2022/08/20 00:46:18;;;;;;;5.57;4.97;;;21.00;99.90;;;;;;5076897;28;20115;-57
2022/08/20 00:48:47;;;;;;;5.78;4.60;;;21.00;99.90;;;;;;5086432;28;20035;-58
2022/08/20 00:51:32;;;;;;;5.43;4.13;;;21.00;99.90;;;;;;5075205;28;20017;-57
2022/08/20 00:54:04;;;;;;;5.32;4.60;;;21.00;99.90;;;;;;5075844;28;20073;-57
2022/08/20 00:56:32;;;;;;;4.80;3.63;;;21.00;99.90;;;;;;5082754;28;20055;-57
2022/08/20 00:58:59;;;;;;;8.25;5.78;;;20.90;99.90;;;;;;5075064;28;20028;-57
2022/08/20 01:01:25;;;;;;;6.47;4.70;;;20.90;99.90;;;;;;5079366;28;20480;-57
2022/08/20 01:03:55;;;;;;;6.25;4.95;;;20.90;99.90;;;;;;5081188;28;20478;-57
2022/08/20 01:06:21;;;;;;;4.82;4.28;;;20.90;99.90;;;;;;5082358;28;20024;-57
2022/08/20 01:08:47;;;;;;;7.07;4.15;;;20.90;99.90;;;;;;5076337;28;20124;-58
2022/08/20 01:11:17;;;;;;;6.47;4.80;;;20.90;99.90;;;;;;5080543;28;20445;-59
2022/08/20 01:13:45;;;;;;;5.65;5.00;;;20.90;99.90;;;;;;5076937;28;20073;-57
2022/08/20 01:16:21;;;;;;;4.82;4.03;;;20.90;99.90;;;;;;5083175;28;20024;-58
2022/08/20 01:18:48;;;;;;;5.13;4.65;;;21.00;99.90;;;;;;5092844;28;20127;-57
2022/08/20 01:21:18;;;;;;;5.05;4.13;;;20.90;99.90;;;;;;5088847;28;20184;-57
2022/08/20 01:24:23;;;;;;;5.55;4.18;;;20.90;99.90;;;;;;5085869;28;20027;-58
2022/08/20 01:26:49;;;;;;;5.07;4.43;;;20.90;99.90;;;;;;5076431;28;20093;-58
2022/08/20 01:29:21;;;;;;;5.28;4.18;;;20.90;99.90;;;;;;5075610;28;20032;-58
2022/08/20 01:31:47;;;;;;;5.95;4.95;;;20.90;99.90;;;;;;5082101;28;20023;-57
2022/08/20 01:34:15;;;;;;;6.00;4.90;;;20.80;99.90;;;;;;5077566;28;20105;-57
2022/08/20 01:36:49;;;;;;;5.97;4.50;;;20.80;99.90;;;;;;5080460;28;20025;-57
2022/08/20 01:39:19;;;;;;;5.80;5.20;;;20.80;99.90;;;;;;5073763;28;20055;-57
2022/08/20 01:42:08;;;;;;;7.97;6.25;;;20.80;99.90;;;;;;5078430;28;20115;-57
2022/08/20 01:44:36;;;;;;;10.02;7.45;;;20.80;99.90;;;;;;5076419;28;20512;-57
2022/08/20 01:47:22;;;;;;;9.02;7.85;;;20.60;99.90;;;;;;5076459;28;20062;-57
2022/08/20 01:49:53;;;;;;;10.48;7.53;;;20.50;99.90;;;;;;5082084;28;20028;-57
2022/08/20 01:52:23;;;;;;;7.60;6.22;;;20.40;99.90;;;;;;5076966;28;20016;-57
2022/08/20 01:54:49;;;;;;;6.72;6.00;;;20.40;99.90;;;;;;5074980;28;20434;-57
2022/08/20 01:57:17;;;;;;;6.80;5.07;;;20.30;99.90;;;;;;5079431;28;20544;-57
2022/08/20 01:59:44;;;;;;;6.13;5.00;;;20.40;99.90;;;;;;5089303;28;20028;-56
2022/08/20 02:02:11;;;;;;;7.93;6.50;;;20.40;99.90;;;;;;5078695;28;20025;-58
2022/08/20 02:04:39;;;;;;;7.68;6.32;;;20.40;99.90;;;;;;5081765;28;20486;-58
2022/08/20 02:07:06;;;;;;;8.10;6.00;;;20.30;99.90;;;;;;5075721;28;20029;-57
2022/08/20 02:09:38;;;;;;;5.82;5.10;;;20.30;99.90;;;;;;5090107;28;20034;-57
2022/08/20 02:12:05;;;;;;;6.65;4.65;;;20.40;99.90;;;;;;5091437;28;20023;-58
2022/08/20 02:14:31;;;;;;;4.60;4.18;;;20.40;99.90;;;;;;5074891;28;20066;-58
2022/08/20 02:16:57;;;;;;;4.95;4.45;;;20.40;99.90;;;;;;5075987;28;20092;-57
2022/08/20 02:19:46;;;;;;;5.28;4.00;;;20.40;99.90;;;;;;5078786;28;20024;-57
2022/08/20 02:22:40;;;;;;;5.30;4.03;;;20.50;99.90;;;;;;5073964;28;20068;-58
2022/08/20 02:25:08;;;;;;;4.47;3.83;;;20.50;99.90;;;;;;5080514;28;20024;-57
2022/08/20 02:27:35;;;;;;;6.35;4.28;;;20.50;99.90;;;;;;5084560;28;20028;-58
2022/08/20 02:30:03;;;;;;;4.70;4.20;;;20.50;99.90;;;;;;5083573;28;20561;-57
2022/08/20 02:32:28;;;;;;;4.53;4.10;;;20.50;99.90;;;;;;5075923;28;20486;-57
2022/08/20 02:34:54;;;;;;;5.85;4.35;;;20.50;99.90;;;;;;5079868;28;20088;-58
2022/08/20 02:37:19;;;;;;;5.10;3.88;;;20.50;99.90;;;;;;5076339;28;20073;-56
2022/08/20 02:39:46;;;;;;;5.57;4.97;;;20.50;99.90;;;;;;5076730;28;20055;-57
2022/08/20 02:42:11;;;;;;;6.97;4.38;;;20.50;99.90;;;;;;5080704;28;20135;-57
2022/08/20 02:44:38;;;;;;;6.57;4.63;;;20.50;99.90;;;;;;5074404;28;20153;-58
2022/08/20 02:47:05;;;;;;;5.35;4.47;;;20.50;99.90;;;;;;5083849;28;20039;-57
2022/08/20 02:49:31;;;;;;;5.40;4.15;;;20.50;99.90;;;;;;5077139;28;20147;-58
2022/08/20 02:51:56;;;;;;;8.27;6.13;;;20.50;99.90;;;;;;5069758;28;20423;-57
2022/08/20 02:54:23;;;;;;;6.78;6.07;;;20.50;99.90;;;;;;5074888;28;20012;-57
2022/08/20 02:56:49;;;;;;;7.95;6.18;;;20.40;99.90;;;;;;5080137;28;20442;-57
2022/08/20 02:59:14;;;;;;;5.90;5.25;;;20.30;99.90;;;;;;5082749;28;20538;-57
2022/08/20 03:01:40;;;;;;;5.45;4.68;;;20.30;99.90;;;;;;5082426;28;20060;-57
2022/08/20 03:04:05;;;;;;;6.90;4.55;;;20.20;99.90;;;;;;5075118;28;20520;-57
2022/08/20 03:06:31;;;;;;;5.65;4.93;;;20.20;99.90;;;;;;5074441;28;20032;-57
2022/08/20 03:08:57;;;;;;;6.10;4.47;;;20.20;99.90;;;;;;5081400;28;20032;-57
2022/08/20 03:11:22;;;;;;;7.55;5.75;;;20.30;99.90;;;;;;5079340;28;20028;-57
2022/08/20 03:13:48;;;;;;;7.43;4.75;;;20.30;99.90;;;;;;5078563;28;20017;-57
2022/08/20 03:16:14;;;;;;;5.85;5.22;;;20.30;99.90;;;;;;5076020;28;20024;-57
2022/08/20 03:18:43;;;;;;;6.03;5.22;;;20.30;99.90;;;;;;5082169;28;20544;-57
2022/08/20 03:21:10;;;;;;;6.28;5.03;;;20.30;99.90;;;;;;5077419;28;20481;-57
2022/08/20 03:23:37;;;;;;;6.25;5.32;;;20.30;99.90;;;;;;5081556;28;20031;-57
2022/08/20 03:26:08;;;;;;;6.13;5.28;;;20.30;99.90;;;;;;5078531;28;20032;-57
2022/08/20 03:28:34;;;;;;;5.75;4.90;;;20.30;99.90;;;;;;5076482;28;20029;-57
2022/08/20 03:31:01;;;;;;;5.80;5.07;;;20.20;99.90;;;;;;5079224;28;20028;-57
2022/08/20 03:33:28;;;;;;;5.35;4.82;;;20.20;99.90;;;;;;5075070;28;20489;-57
2022/08/20 03:35:54;;;;;;;6.72;5.30;;;20.20;99.90;;;;;;5086524;28;20401;-58
2022/08/20 03:38:22;;;;;;;5.80;5.20;;;20.20;99.90;;;;;;5078222;28;20032;-57
2022/08/20 03:40:48;;;;;;;5.90;5.30;;;20.10;99.90;;;;;;5079397;28;20044;-57
2022/08/20 03:43:13;;;;;;;5.13;4.63;;;20.00;99.90;;;;;;5086733;28;20020;-57
2022/08/20 03:45:42;;;;;;;8.55;5.10;;;20.00;99.90;;;;;;5078994;28;20033;-57
2022/08/20 03:48:11;;;;;;;5.22;4.60;;;20.10;99.90;;;;;;5079834;28;20526;-57
2022/08/20 03:50:39;;;;;;;6.57;5.18;;;20.00;99.90;;;;;;5076324;28;20024;-57
2022/08/20 03:53:05;;;;;;;5.90;3.97;;;20.00;99.90;;;;;;5073612;28;20013;-57
2022/08/20 03:55:31;;;;;;;4.30;3.85;;;20.00;99.90;;;;;;5075628;28;20028;-57
2022/08/20 03:58:01;;;;;;;5.07;4.57;;;19.90;99.90;;;;;;5074542;28;20017;-57
2022/08/20 04:00:48;;;;;;;5.78;5.15;;;19.90;99.90;;;;;;5081415;28;20027;-57
2022/08/20 04:03:14;;;;;;;6.38;5.18;;;20.00;99.90;;;;;;5074720;28;20100;-57
2022/08/20 04:05:41;;;;;;;6.32;4.70;;;19.90;99.90;;;;;;5081898;28;20099;-57
2022/08/20 04:08:14;;;;;;;6.78;4.68;;;19.90;99.90;;;;;;5075660;28;20027;-57
2022/08/20 04:10:40;;;;;;;5.95;5.35;;;19.90;99.90;;;;;;5077693;28;20137;-58
2022/08/20 04:13:07;;;;;;;6.03;5.43;;;19.90;99.90;;;;;;5071530;28;20058;-57
2022/08/20 04:15:35;;;;;;;6.60;5.50;;;19.80;99.90;;;;;;5076775;28;20017;-55
2022/08/20 04:18:05;;;;;;;6.32;5.32;;;19.80;99.90;;;;;;5080421;28;20028;-57
2022/08/20 04:20:31;;;;;;;7.00;5.70;;;19.70;99.90;;;;;;5081388;28;20060;-56
2022/08/20 04:22:56;;;;;;;5.70;4.60;;;19.70;99.90;;;;;;5076480;28;20059;-57
2022/08/20 04:25:22;;;;;;;5.88;4.75;;;19.70;99.90;;;;;;5072385;28;20008;-56
2022/08/20 04:27:52;;;;;;;7.07;4.47;;;19.80;99.90;;;;;;5072455;28;20028;-57
2022/08/20 04:30:20;;;;;;;;;;;19.80;99.90;;;;;;5080203;28;20359;-57
2022/08/20 04:32:45;;;;;;;6.18;4.07;;;19.80;99.90;;;;;;5074065;28;20407;-57
2022/08/20 04:35:14;;;;;;;6.10;4.82;;;19.70;99.90;;;;;;5074571;28;20028;-55
2022/08/20 04:37:41;;;;;;;6.53;5.03;;;19.80;99.90;;;;;;5079002;28;20018;-57
2022/08/20 04:42:56;;;;;;;7.87;4.63;;;19.80;99.90;;;;;;5070622;28;20113;-58
2022/08/20 04:45:23;;;;;;;7.32;4.95;;;19.80;99.90;;;;;;5074030;28;20028;-57
2022/08/20 04:47:49;;;;;;;5.90;5.25;;;19.80;99.90;;;;;;5072959;28;20025;-57
2022/08/20 04:50:16;;;;;;;9.20;5.32;;;19.90;99.90;;;;;;5090085;28;20445;-58
2022/08/20 04:52:42;;;;;;;5.53;5.03;;;19.90;99.90;;;;;;5087854;28;20032;-57
2022/08/20 04:55:09;;;;;;;8.80;5.82;;;19.90;99.90;;;;;;5091830;28;20107;-57
2022/08/20 04:57:38;;;;;;;8.05;5.80;;;19.90;99.90;;;;;;5091108;28;20024;-57
2022/08/20 05:00:11;;;;;;;6.65;5.72;;;19.90;99.90;;;;;;5083399;28;20460;-57
2022/08/20 05:02:37;;;;;;;8.90;6.50;;;19.90;99.90;;;;;;5091510;28;20035;-57
2022/08/20 05:05:06;;;;;;;11.32;6.95;;;19.90;99.90;;;;;;5091517;28;20020;-58
2022/08/20 05:07:47;;;;;;;8.63;7.18;;;19.90;99.90;;;;;;5091493;28;20029;-58
2022/08/20 05:10:16;;;;;;;9.63;7.38;;;20.00;99.90;;;;;;5091508;28;20032;-58
2022/08/20 05:12:43;;;;;;;9.35;7.38;;;20.00;99.90;;;;;;5091851;28;20020;-57
2022/08/20 05:15:11;;;;;;;8.68;7.20;;;20.00;99.90;;;;;;5091529;28;20033;-58
2022/08/20 05:17:38;;;;;;;9.63;6.97;;;20.00;99.90;;;;;;5086700;28;20030;-58
2022/08/20 05:20:06;;;;;;;8.63;7.03;;;20.00;99.90;;;;;;5095122;28;20020;-57
2022/08/20 05:22:32;;;;;;;9.95;6.90;;;20.00;99.90;;;;;;5086487;28;20024;-57
2022/08/20 05:24:58;;;;;;;6.82;5.88;;;20.00;99.90;;;;;;5087467;28;20027;-57
2022/08/20 05:27:25;;;;;;;9.02;6.28;;;20.00;99.90;;;;;;5094420;28;20439;-58
2022/08/20 05:29:53;;;;;;;6.88;6.18;;;20.00;99.90;;;;;;5094283;28;20033;-57
2022/08/20 05:32:19;;;;;;;7.47;6.25;;;20.00;99.90;;;;;;5095135;28;20095;-57
2022/08/20 05:34:45;;;;;;;7.20;6.15;;;20.00;99.90;;;;;;5095044;28;20099;-57
2022/08/20 05:37:10;;;;;;;7.45;6.15;;;19.90;99.90;;;;;;5094910;28;20028;-57
2022/08/20 05:39:36;;;;;;;7.70;6.10;;;20.00;99.90;;;;;;5094520;28;20449;-57
2022/08/20 05:42:01;;;;;;;6.95;5.65;;;19.90;99.90;;;;;;5094567;28;20040;-57
2022/08/20 05:44:27;;;;;;;8.55;6.13;;;19.90;99.90;;;;;;5094616;28;20028;-57
2022/08/20 05:46:52;;;;;;;8.02;5.82;;;19.90;99.90;;;;;;5094820;28;20063;-57
2022/08/20 05:49:20;;;;;;;6.60;5.88;;;19.90;99.90;;;;;;5094266;28;20473;-57
2022/08/20 05:51:48;;;;;;;7.93;5.95;;;19.90;99.90;;;;;;5094659;28;20020;-57
2022/08/20 05:54:14;;;;;;;7.95;6.00;;;19.90;99.90;;;;;;5094356;28;20107;-57
2022/08/20 05:56:40;;;;;;;6.57;5.85;;;19.90;99.90;;;;;;5094784;28;20027;-57
2022/08/20 05:59:06;;;;;;;6.93;6.22;;;19.90;99.90;;;;;;5094327;28;20028;-57
2022/08/20 06:01:34;;;;;;;6.93;6.22;;;19.90;99.90;;;;;;5094717;28;20117;-57
2022/08/20 06:06:45;;;;;;;8.30;6.40;;;19.90;99.90;;;;;;5094702;28;20101;-58
2022/08/20 06:09:11;;;;;;;8.02;6.00;;;19.90;99.90;;;;;;5093880;28;20067;-59
2022/08/20 06:11:37;;;;;;;8.77;6.13;;;19.90;99.90;;;;;;5094451;28;20031;-57
2022/08/20 06:14:02;;;;;;;6.85;5.28;;;19.90;99.90;;;;;;5080341;28;20012;-57
2022/08/20 06:16:28;;;;;;;6.15;5.18;;;20.00;99.90;;;;;;5091028;28;20362;-57
2022/08/20 06:18:54;;;;;;;5.75;4.82;;;20.00;99.90;;;;;;5092815;28;20497;-58
2022/08/20 06:21:19;;;;;;;4.88;4.28;;;20.00;99.90;;;;;;5092931;28;20028;-57
2022/08/20 06:23:45;;;;;;;5.93;4.80;;;20.10;99.90;;;;;;5093903;28;20170;-58
2022/08/20 06:26:10;;;;;;;4.60;4.15;;;20.10;99.90;;;;;;5093460;28;20654;-58
2022/08/20 06:28:36;;;;;;;4.80;4.25;;;20.10;99.90;;;;;;5094747;28;20035;-57
2022/08/20 06:31:02;;;;;;;4.90;3.85;;;20.10;99.90;;;;;;5093832;28;20026;-57
2022/08/20 06:33:27;;;;;;;5.63;4.30;;;20.10;99.90;;;;;;5092343;28;20105;-57
2022/08/20 06:35:54;;;;;;;4.68;3.67;;;20.10;99.90;;;;;;5088920;28;20024;-57
2022/08/20 06:38:19;;;;;;;4.22;3.00;;;20.10;99.90;;;;;;5090477;28;20474;-58
2022/08/20 06:40:45;;;;;;;3.55;2.97;;;20.10;99.90;;;;;;5092501;28;20048;-59
2022/08/20 06:43:11;;;;;;;4.47;3.70;;;20.20;99.90;;;;;;5093249;28;20028;-56
2022/08/20 06:45:38;;;;;;;4.80;3.13;;;20.20;99.90;;;;;;5093576;28;20028;-57
2022/08/20 06:48:12;;;;;;;4.40;2.90;;;20.20;99.90;;;;;;5093143;28;20020;-58
2022/08/20 06:50:41;;;;;;;3.83;2.33;;;20.30;99.90;;;;;;5093402;28;20047;-57
2022/08/20 06:53:13;;;;;;;4.03;2.28;;;20.30;99.90;;;;;;5080783;28;20031;-58
2022/08/20 06:55:41;;;;;;;4.85;2.05;;;20.30;99.90;;;;;;5093359;28;20016;-57
2022/08/20 06:58:09;;;;;;;2.45;2.08;;;20.30;99.90;;;;;;5093352;28;20443;-57
2022/08/20 07:00:36;;;;;;;1.92;1.45;;;20.30;99.90;;;;;;5092152;28;20074;-57
2022/08/20 07:03:03;;;;;;;2.17;1.60;;;20.40;99.90;;;;;;5092942;28;20024;-57
2022/08/20 07:05:32;;;;;;;2.38;1.70;;;20.40;99.90;;;;;;5091964;28;20034;-57
2022/08/20 07:07:58;;;;;;;2.40;1.60;;;20.40;99.90;;;;;;5087417;28;20034;-58
2022/08/20 07:10:24;;;;;;;2.75;1.80;;;20.40;99.70;;;;;;5091110;28;21029;-57
2022/08/20 07:12:50;;;;;;;1.75;1.65;;;20.50;99.40;;;;;;5091574;28;20054;-57
2022/08/20 07:15:17;;;;;;;3.38;2.05;;;20.50;99.00;;;;;;5082560;28;20020;-57
2022/08/20 07:17:52;;;;;;;3.65;2.65;;;20.50;98.80;;;;;;5083716;28;20047;-57
2022/08/20 07:20:18;;;;;;;1.70;1.50;;;20.60;98.60;;;;;;5076369;28;20470;-57
2022/08/20 07:22:44;;;;;;;1.73;1.40;;;20.60;98.50;;;;;;5076600;28;20043;-58
2022/08/20 07:25:13;;;;;;;1.50;1.30;;;20.70;98.30;;;;;;5091485;28;20029;-57
2022/08/20 07:27:39;;;;;;;2.10;1.10;;;20.70;98.00;;;;;;5087996;28;20104;-58
2022/08/20 07:32:51;;;;;;;2.70;1.55;;;20.80;97.50;;;;;;5090723;28;20059;-57
2022/08/20 07:35:18;;;;;;;1.95;1.40;;;20.90;97.30;;;;;;5091006;28;20035;-58
2022/08/20 07:37:48;;;;;;;2.85;1.52;;;20.90;97.00;;;;;;5083516;28;20028;-57
2022/08/20 07:40:20;;;;;;;3.00;1.33;;;20.90;96.70;;;;;;5085853;28;20096;-57
2022/08/20 07:42:47;;;;;;;3.30;1.17;;;21.00;96.60;;;;;;5085693;28;20047;-58
2022/08/20 07:45:17;;;;;;;2.75;1.48;;;21.00;96.30;;;;;;5090503;28;20023;-58
2022/08/20 07:47:43;;;;;;;4.90;1.38;;;21.10;95.90;;;;;;5087941;28;20020;-58
2022/08/20 07:50:12;;;;;;;3.25;1.42;;;21.10;95.20;;;;;;5074502;28;20082;-57
2022/08/20 07:52:37;;;;;;;3.47;1.38;;;21.10;94.80;;;;;;5087441;28;20020;-58
2022/08/20 07:55:09;;;;;;;3.08;1.35;;;21.10;94.70;;;;;;5091319;28;20520;-57
2022/08/20 07:57:35;;;;;;;3.10;1.40;;;21.20;94.50;;;;;;5088159;28;20057;-57
2022/08/20 08:00:02;;;;;;;1.98;1.08;;;21.30;94.50;;;;;;5087647;28;20032;-58
2022/08/20 08:02:27;;;;;;;2.75;1.48;;;21.30;94.50;;;;;;5090101;28;20024;-57
2022/08/20 08:04:53;;;;;;;3.58;1.40;;;21.40;94.30;;;;;;5089000;28;20032;-57
2022/08/20 08:07:20;;;;;;;4.90;1.50;;;21.40;94.20;;;;;;5089043;28;20099;-57
2022/08/20 08:09:48;;;;;;;3.58;1.23;;;21.50;94.00;;;;;;5087780;28;20109;-58
2022/08/20 08:12:14;;;;;;;2.15;1.13;;;21.50;93.90;;;;;;5089395;28;20031;-57
2022/08/20 08:14:41;;;;;;;3.08;1.13;;;21.60;93.70;;;;;;5090152;28;20420;-57
2022/08/20 08:17:08;;;;;;;4.20;1.38;;;21.70;93.50;;;;;;5087294;28;20012;-57
2022/08/20 08:19:40;;;;;;;3.03;1.30;;;21.70;93.40;;;;;;5092006;28;20024;-57
2022/08/20 08:22:10;;;;;;;4.40;1.38;;;21.80;93.20;;;;;;5087757;28;20036;-57
2022/08/20 08:24:36;;;;;;;4.63;1.40;;;21.80;93.10;;;;;;5087715;28;20055;-57
2022/08/20 08:27:02;;;;;;;3.03;1.10;;;21.90;92.80;;;;;;5084892;28;20048;-57
2022/08/20 08:29:28;;;;;;;2.20;1.17;;;22.00;92.60;;;;;;5084532;28;20482;-57
2022/08/20 08:31:54;;;;;;;3.55;1.40;;;22.10;92.40;;;;;;5082196;28;20027;-57
2022/08/20 08:34:19;;;;;;;2.70;1.05;;;22.20;92.20;;;;;;5083487;28;20382;-58
2022/08/20 08:36:45;;;;;;;3.28;1.45;;;22.30;92.10;;;;;;5086881;28;20498;-58
2022/08/20 08:39:10;;;;;;;3.42;1.45;;;22.40;91.90;;;;;;5084610;28;20046;-58
2022/08/20 08:41:48;;;;;;;2.92;1.27;;;22.50;91.40;;;;;;5089601;28;20079;-58
2022/08/20 08:44:22;;;;;;;4.60;1.30;;;22.50;90.60;;;;;;5091692;28;20056;-57
2022/08/20 08:46:52;;;;;;;3.75;1.15;;;22.50;90.30;;;;;;5079087;28;20042;-57
2022/08/20 08:49:23;;;;;;;;;;;22.60;90.10;;;;;;5091634;28;20031;-58
2022/08/20 08:52:00;;;;;;;3.40;1.23;;;22.60;90.40;;;;;;5095129;28;19927;-57
2022/08/20 08:54:30;;;;;;;2.65;1.40;;;22.70;90.20;;;;;;5094169;28;20447;-57
2022/08/20 08:56:58;;;;;;;3.38;1.63;;;22.90;89.60;;;;;;5095575;28;20023;-57
2022/08/20 08:59:26;;;;;;;3.70;1.42;;;22.90;88.70;;;;;;5094824;28;20084;-57
2022/08/20 09:01:55;;;;;;;3.85;1.42;;;23.00;88.00;;;;;;5095864;28;20385;-58
2022/08/20 09:04:22;;;;;;;3.25;1.02;;;23.10;87.60;;;;;;5094812;28;20031;-58
2022/08/20 09:06:52;;;;;;;6.13;1.35;;;23.10;87.70;;;;;;5095872;28;20028;-58
2022/08/20 09:09:40;;;;;;;3.60;1.35;;;23.10;87.30;;;;;;5084229;28;20024;-57
2022/08/20 09:12:18;;;;;;;4.15;1.42;;;23.20;86.20;;;;;;5095195;28;20028;-62
2022/08/20 09:14:46;;;;;;;4.67;1.70;;;23.20;85.40;;;;;;5089521;28;20523;-57
2022/08/20 09:17:13;;;;;;;5.30;1.15;;;23.20;85.60;;;;;;5085235;28;20016;-58
2022/08/20 09:19:38;;;;;;;3.55;1.30;;;23.30;85.30;;;;;;5090077;28;20077;-57
2022/08/20 09:22:14;;;;;;;5.35;1.10;;;23.40;84.70;;;;;;5093814;28;20024;-57
2022/08/20 09:24:40;;;;;;;4.72;1.30;;;23.60;82.70;;;;;;5093959;28;20020;-58
2022/08/20 09:27:06;;;;;;;3.80;1.15;;;23.70;81.20;;;;;;5091140;28;20544;-57
2022/08/20 09:29:32;;;;;;;5.28;1.45;;;23.80;80.70;;;;;;5093403;28;20028;-57
2022/08/20 09:32:17;;;;;;;5.57;1.20;;;23.80;80.10;;;;;;5093574;28;20074;-57
2022/08/20 09:34:50;;;;;;;3.67;1.30;;;23.90;80.00;;;;;;5090769;28;20079;-57
2022/08/20 09:37:16;;;;;;;4.78;1.00;;;24.00;80.00;;;;;;5093390;28;20024;-58
2022/08/20 09:39:42;;;;;;;5.00;1.33;;;24.10;79.70;;;;;;5093479;28;20389;-57
2022/08/20 09:42:09;;;;;;;3.53;0.98;;;24.20;78.50;;;;;;5093589;28;20052;-58
2022/08/20 09:44:34;;;;;;;6.07;1.13;;;24.20;78.20;;;;;;5093973;28;20032;-58
2022/08/20 09:47:00;;;;;;;5.15;1.30;;;24.20;77.80;;;;;;5090915;28;20028;-58
2022/08/20 09:49:26;;;;;;;5.38;1.40;;;24.30;76.40;;;;;;5093061;28;20038;-63
2022/08/20 09:51:51;;;;;;;3.03;0.80;;;24.30;74.50;;;;;;5090457;28;20095;-57
2022/08/20 09:54:18;;;;;;;4.47;0.80;;;24.40;72.00;;;;;;5091666;28;20020;-57
2022/08/20 09:56:46;;;;;;;4.68;1.00;;;24.30;71.60;;;;;;5090772;28;20074;-58
2022/08/20 09:59:14;;;;;;;3.78;1.00;;;24.30;71.50;;;;;;5090631;28;20019;-57
2022/08/20 10:01:40;;;;;;;4.27;0.70;;;24.30;71.20;;;;;;5089647;28;20017;-57
2022/08/20 10:04:06;;;;;;;3.30;0.90;;;24.40;70.80;;;;;;5087283;28;20802;-57
2022/08/20 10:06:38;;;;;;;5.25;1.23;;;24.50;71.40;;;;;;5085617;28;20032;-57
2022/08/20 10:09:04;;;;;;;5.32;1.50;;;24.70;70.50;;;;;;5088174;28;20067;-57
2022/08/20 10:11:29;;;;;;;4.45;1.15;;;24.80;69.90;;;;;;5090556;28;20059;-57
2022/08/20 10:13:55;;;;;;;5.03;1.15;;;24.80;69.50;;;;;;5091506;28;20020;-57
2022/08/20 10:16:20;;;;;;;3.20;0.98;;;24.90;69.30;;;;;;5085462;28;20028;-58
2022/08/20 10:18:48;;;;;;;3.08;0.90;;;24.90;69.40;;;;;;5087290;28;20027;-57
2022/08/20 10:21:14;;;;;;;6.78;1.60;;;25.00;69.20;;;;;;5091615;28;20031;-58
2022/08/20 10:23:40;;;;;;;2.67;0.70;;;25.10;69.00;;;;;;5091332;28;20172;-58
2022/08/20 10:26:10;;;;;;;5.80;1.35;;;25.10;68.80;;;;;;5092725;28;20445;-57
2022/08/20 10:28:36;;;;;;;6.47;1.40;;;25.30;68.20;;;;;;5089786;28;20085;-57
2022/08/20 10:31:05;;;;;;;5.20;1.10;;;25.30;66.60;;;;;;5089749;28;20109;-57
2022/08/20 10:33:30;;;;;;;4.45;1.15;;;25.40;65.80;;;;;;5093212;28;20044;-58
2022/08/20 10:35:56;;;;;;;4.45;1.00;;;25.40;65.50;;;;;;5092505;28;21158;-58
2022/08/20 10:38:21;;;;;;;5.55;1.00;;;25.60;64.70;;;;;;5093281;28;20146;-57
2022/08/20 10:40:47;;;;;;;3.20;0.80;;;25.60;63.90;;;;;;5085705;28;20413;-57
2022/08/20 10:43:12;;;;;;;3.40;0.70;;;25.70;64.00;;;;;;5093665;28;20473;-57
2022/08/20 10:45:38;;;;;;;6.10;1.20;;;25.80;63.30;;;;;;5093015;28;20445;-57
2022/08/20 10:48:06;;;;;;;5.07;1.00;;;25.80;63.10;;;;;;5093560;28;20028;-57
2022/08/20 10:50:31;;;;;;;3.50;0.90;;;25.90;62.70;;;;;;5093551;28;20146;-57
2022/08/20 10:52:57;;;;;;;4.72;1.50;;;26.10;62.50;;;;;;5092084;28;20111;-57
2022/08/20 10:55:22;;;;;;;5.50;1.10;;;26.20;62.10;;;;;;5087174;28;20019;-57
2022/08/20 10:57:48;;;;;;;4.22;0.93;;;26.30;61.00;;;;;;5080953;28;20027;-57
2022/08/20 11:00:16;;;;;;;3.60;0.82;;;26.40;60.00;;;;;;5086153;28;20538;-58
2022/08/20 11:02:42;;;;;;;3.53;1.13;;;26.40;60.50;;;;;;5088284;28;20099;-58
2022/08/20 11:05:07;;;;;;;4.80;0.85;;;26.50;60.60;;;;;;5087033;28;20020;-58
2022/08/20 11:07:41;;;;;;;4.70;1.13;;;26.60;60.10;;;;;;5092202;28;20504;-58
2022/08/20 11:10:08;;;;;;;3.80;0.98;;;26.80;59.30;;;;;;5087042;28;20028;-58
2022/08/20 11:12:34;;;;;;;3.65;0.80;;;27.00;59.60;;;;;;5092247;28;20024;-57
2022/08/20 11:14:59;;;;;;;4.53;1.08;;;27.50;57.70;;;;;;5091492;28;20020;-58
2022/08/20 11:17:28;;;;;;;3.15;1.13;;;27.90;55.80;;;;;;5088682;28;20036;-58
2022/08/20 11:19:54;;;;;;;;;;;28.20;55.10;;;;;;5086491;28;20023;-58
2022/08/20 11:22:20;;;;;;;5.00;1.42;;;28.50;54.20;;;;;;5091796;28;20041;-58
2022/08/20 11:24:46;;;;;;;3.80;0.98;;;28.70;53.10;;;;;;5091523;28;20055;-58
2022/08/20 11:27:22;;;;;;;3.30;0.73;;;29.00;52.20;;;;;;5091249;28;20119;-58
2022/08/20 11:29:47;;;;;;;2.60;0.70;;;29.30;51.80;;;;;;5088162;28;20024;-58
2022/08/20 11:32:13;;;;;;;3.75;1.35;;;29.70;51.70;;;;;;5091775;28;20025;-58
2022/08/20 11:34:38;;;;;;;3.70;0.80;;;30.10;50.20;;;;;;5092832;28;20020;-59
2022/08/20 11:37:04;;;;;;;3.03;1.00;;;30.30;49.60;;;;;;5091913;28;20485;-58
2022/08/20 11:39:29;;;;;;;4.35;0.93;;;30.50;49.10;;;;;;5090996;28;20405;-58
2022/08/20 11:41:55;;;;;;;3.35;1.00;;;30.70;49.00;;;;;;5087513;28;20048;-58
2022/08/20 11:44:21;;;;;;;6.70;1.33;;;30.90;48.60;;;;;;5092018;28;20073;-58
2022/08/20 11:46:46;;;;;;;4.45;1.00;;;30.80;47.30;;;;;;5073708;28;20024;-58
2022/08/20 11:49:12;;;;;;;2.38;0.70;;;30.70;47.60;;;;;;5072251;28;20031;-58
2022/08/20 11:51:37;;;;;;;2.97;0.90;;;30.70;48.20;;;;;;5092484;28;20059;-58
2022/08/20 11:54:04;;;;;;;3.95;1.33;;;30.70;48.00;;;;;;5092702;28;20373;-58
2022/08/20 11:56:30;;;;;;;6.00;1.25;;;30.90;46.70;;;;;;5079651;28;20028;-57
2022/08/20 11:58:55;;;;;;;3.00;0.95;;;31.10;46.70;;;;;;5092353;28;20036;-58
2022/08/20 12:01:21;;;;;;;5.13;1.02;;;31.30;46.40;;;;;;5073173;28;20120;-58
2022/08/20 12:03:46;;;;;;;5.72;1.02;;;31.70;46.50;;;;;;5086397;28;20390;-58
2022/08/20 12:06:12;;;;;;;4.80;1.00;;;32.00;46.10;;;;;;5073772;28;20027;-58
2022/08/20 12:08:38;;;;;;;4.32;1.13;;;32.20;45.20;;;;;;5075200;28;20024;-58
2022/08/20 12:11:04;;;;;;;4.20;0.90;;;32.50;44.80;;;;;;5092347;28;20031;-58
2022/08/20 12:13:33;;;;;;;4.22;1.48;;;32.60;44.50;;;;;;5092244;28;20024;-58
2022/08/20 12:15:59;;;;;;;3.67;0.90;;;32.80;44.30;;;;;;5092044;28;20013;-58
2022/08/20 12:18:25;;;;;;;4.53;1.50;;;32.90;44.30;;;;;;5091142;28;20077;-58
2022/08/20 12:20:51;;;;;;;4.25;1.02;;;32.90;43.10;;;;;;5072361;28;20029;-58
2022/08/20 12:23:16;;;;;;;3.17;0.90;;;33.00;42.80;;;;;;5085578;28;20024;-58
2022/08/20 12:25:42;;;;;;;4.57;1.20;;;33.00;43.10;;;;;;5087903;28;20039;-58
2022/08/20 12:28:10;;;;;;;4.05;1.05;;;32.90;42.70;;;;;;5092545;28;20166;-58
2022/08/20 12:30:36;;;;;;;4.30;1.40;;;32.90;42.50;;;;;;5092307;28;20024;-58
2022/08/20 12:33:01;;;;;;;4.28;0.73;;;33.00;42.40;;;;;;5101335;28;20020;-58
2022/08/20 12:35:28;;;;;;;4.00;1.05;;;33.00;42.10;;;;;;5098567;28;20384;-58
2022/08/20 12:37:53;;;;;;;4.57;1.17;;;33.20;42.00;;;;;;5089574;28;20020;-58
2022/08/20 12:40:23;;;;;;;2.38;0.68;;;33.30;41.90;;;;;;5090432;28;20043;-58
2022/08/20 12:42:48;;;;;;;2.72;1.20;;;33.40;41.60;;;;;;5089669;28;20117;-58
2022/08/20 12:45:15;;;;;;;4.57;1.00;;;33.60;41.80;;;;;;5091331;28;20082;-58
2022/08/20 12:47:43;;;;;;;4.07;1.08;;;33.70;41.90;;;;;;5082097;28;20059;-58
2022/08/20 12:50:13;;;;;;;2.72;0.90;;;33.80;41.50;;;;;;5080133;28;20028;-58
2022/08/20 12:52:39;;;;;;;2.45;0.70;;;33.80;41.10;;;;;;5086913;28;20044;-58
2022/08/20 12:55:07;;;;;;;3.33;0.90;;;33.70;41.00;;;;;;5092990;28;20024;-58
2022/08/20 12:57:40;;;;;;;2.78;0.90;;;33.80;41.40;;;;;;5087716;28;20047;-59
2022/08/20 13:00:14;;;;;;;2.45;1.00;;;34.00;41.20;;;;;;5091267;28;20031;-58